Time;durP1;ratioP1;P1;durP2;ratioP2;P2;SDS_P1;SDS_P2;PMS_P1;PMS_P2;Temp;Humidity;BMP_temperature;BMP_pressure;BME280_temperature;BME280_humidity;BME280_pressure;Samples;Min_cycle;Max_cycle;Signal;HPM_P1;HPM_P2
2024/02/23 00:02:21;;;;;;;0.60;0.40;;;12.50;99.90;;;;;;5072601;28;20032;-43
2024/02/23 00:04:47;;;;;;;0.77;0.35;;;12.50;99.90;;;;;;5072517;28;20033;-44
2024/02/23 00:07:12;;;;;;;0.40;0.20;;;12.50;99.90;;;;;;5072466;28;20035;-45
2024/02/23 00:09:38;;;;;;;0.30;0.20;;;12.50;99.90;;;;;;5072477;28;20119;-40
2024/02/23 00:12:04;;;;;;;0.30;0.25;;;12.50;99.90;;;;;;5072381;28;20017;-44
2024/02/23 00:14:35;;;;;;;0.45;0.30;;;12.50;99.90;;;;;;5072342;28;20020;-43
2024/02/23 00:17:02;;;;;;;0.30;0.20;;;12.50;99.90;;;;;;5072017;28;20017;-44
2024/02/23 00:19:27;;;;;;;0.60;0.28;;;12.50;99.90;;;;;;5071894;28;20032;-42
2024/02/23 00:21:53;;;;;;;0.10;0.10;;;12.50;99.90;;;;;;5072142;28;20029;-45
2024/02/23 00:24:20;;;;;;;0.20;0.20;;;12.50;99.90;;;;;;5071907;28;20390;-45
2024/02/23 00:26:46;;;;;;;0.40;0.30;;;12.50;99.90;;;;;;5071702;28;20445;-42
2024/02/23 00:29:12;;;;;;;0.25;0.20;;;12.50;99.90;;;;;;5071712;28;20025;-44
2024/02/23 00:31:40;;;;;;;0.30;0.20;;;12.50;99.90;;;;;;5072518;28;20108;-44
2024/02/23 00:34:10;;;;;;;0.63;0.25;;;12.40;99.90;;;;;;5072233;28;20074;-44
2024/02/23 00:36:38;;;;;;;1.88;0.35;;;12.40;99.90;;;;;;5071561;28;20028;-45
2024/02/23 00:39:04;;;;;;;0.28;0.15;;;12.50;99.90;;;;;;5071824;28;20028;-44
2024/02/23 00:41:29;;;;;;;0.82;0.22;;;12.40;99.90;;;;;;5071725;28;20036;-45
2024/02/23 00:43:55;;;;;;;0.30;0.20;;;12.40;99.90;;;;;;5072336;28;20031;-46
2024/02/23 00:46:20;;;;;;;0.47;0.20;;;12.40;99.90;;;;;;5071552;28;20064;-46
2024/02/23 00:48:47;;;;;;;0.77;0.20;;;12.40;99.90;;;;;;5071295;28;20394;-45
2024/02/23 00:51:12;;;;;;;0.95;0.30;;;12.40;99.90;;;;;;5069940;28;20356;-46
2024/02/23 00:53:38;;;;;;;0.30;0.20;;;12.40;99.90;;;;;;5071854;28;20030;-45
2024/02/23 00:56:04;;;;;;;0.47;0.20;;;12.40;99.90;;;;;;5071535;28;20371;-43
2024/02/23 00:58:29;;;;;;;1.67;0.30;;;12.40;99.90;;;;;;5070505;28;20391;-44
2024/02/23 01:00:55;;;;;;;1.20;0.45;;;12.40;99.90;;;;;;5071070;28;20036;-44
2024/02/23 01:03:21;;;;;;;1.10;0.47;;;12.40;99.90;;;;;;5071454;28;20059;-43
2024/02/23 01:05:46;;;;;;;1.25;0.30;;;12.30;99.90;;;;;;5071186;28;20029;-45
2024/02/23 01:08:12;;;;;;;0.65;0.20;;;12.40;99.90;;;;;;5071019;28;20510;-44
2024/02/23 01:10:38;;;;;;;0.52;0.30;;;12.40;99.90;;;;;;5071021;28;20016;-44
2024/02/23 01:13:04;;;;;;;0.40;0.30;;;12.30;99.90;;;;;;5071148;28;20021;-45
2024/02/23 01:15:30;;;;;;;1.25;0.20;;;12.30;99.90;;;;;;5070730;28;20363;-46
2024/02/23 01:17:56;;;;;;;0.40;0.30;;;12.30;99.90;;;;;;5070951;28;20108;-44
2024/02/23 01:20:22;;;;;;;0.40;0.30;;;12.30;99.90;;;;;;5070931;28;20025;-45
2024/02/23 01:22:47;;;;;;;1.20;0.30;;;12.30;99.90;;;;;;5070935;28;20035;-45
2024/02/23 01:25:15;;;;;;;1.20;0.40;;;12.30;99.90;;;;;;5070771;28;20024;-45
2024/02/23 01:27:41;;;;;;;1.60;0.20;;;12.30;99.90;;;;;;5070763;28;20036;-44
2024/02/23 01:30:07;;;;;;;0.90;0.30;;;12.30;99.90;;;;;;5070818;28;20035;-45
2024/02/23 01:32:33;;;;;;;0.50;0.25;;;12.30;99.90;;;;;;5070998;28;20024;-45
2024/02/23 01:34:58;;;;;;;0.88;0.20;;;12.30;99.90;;;;;;5070652;28;20074;-44
2024/02/23 01:37:24;;;;;;;1.17;0.40;;;12.30;99.90;;;;;;5070936;28;20024;-45
2024/02/23 01:39:50;;;;;;;0.22;0.20;;;12.30;99.90;;;;;;5070710;28;20074;-44
2024/02/23 01:42:15;;;;;;;0.80;0.20;;;12.30;99.90;;;;;;5071077;28;20039;-43
2024/02/23 01:44:41;;;;;;;1.50;0.40;;;12.30;99.90;;;;;;5071210;28;20032;-45
2024/02/23 01:47:06;;;;;;;0.80;0.20;;;12.30;99.90;;;;;;5070975;28;20040;-42
2024/02/23 01:49:34;;;;;;;0.85;0.40;;;12.30;99.90;;;;;;5070623;28;20089;-45
2024/02/23 01:52:02;;;;;;;0.65;0.30;;;12.30;99.90;;;;;;5070942;28;20402;-43
2024/02/23 01:54:29;;;;;;;1.65;0.40;;;12.30;99.90;;;;;;5070844;28;20108;-42
2024/02/23 01:56:56;;;;;;;1.10;0.30;;;12.20;99.90;;;;;;5070497;28;20040;-45
2024/02/23 01:59:23;;;;;;;0.60;0.22;;;12.20;99.90;;;;;;5070487;28;20095;-45
2024/02/23 02:01:48;;;;;;;1.27;0.38;;;12.20;99.90;;;;;;5070845;28;20029;-46
2024/02/23 02:04:14;;;;;;;1.27;0.20;;;12.20;99.90;;;;;;5070962;28;20477;-45
2024/02/23 02:06:40;;;;;;;3.30;0.40;;;12.20;99.90;;;;;;5070434;28;20032;-45
2024/02/23 02:09:06;;;;;;;1.20;0.40;;;12.20;99.90;;;;;;5070383;28;20036;-44
2024/02/23 02:11:31;;;;;;;1.27;0.40;;;12.20;99.90;;;;;;5070608;28;20028;-43
2024/02/23 02:13:57;;;;;;;0.22;0.20;;;12.20;99.90;;;;;;5070622;28;20486;-46
2024/02/23 02:16:22;;;;;;;1.15;0.32;;;12.20;99.90;;;;;;5070526;28;20032;-45
2024/02/23 02:18:48;;;;;;;0.55;0.30;;;12.20;99.90;;;;;;5070690;28;20040;-45
2024/02/23 02:21:14;;;;;;;1.02;0.40;;;12.20;99.90;;;;;;5070397;28;20032;-44
2024/02/23 02:23:40;;;;;;;1.55;0.47;;;12.20;99.90;;;;;;5070555;28;20024;-44
2024/02/23 02:26:05;;;;;;;0.88;0.30;;;12.20;99.90;;;;;;5070297;28;20020;-43
2024/02/23 02:28:31;;;;;;;1.75;0.40;;;12.20;99.90;;;;;;5073151;28;20552;-41
2024/02/23 02:30:57;;;;;;;1.33;0.40;;;12.20;99.90;;;;;;5074021;28;20497;-40
2024/02/23 02:33:22;;;;;;;2.15;0.40;;;12.20;99.90;;;;;;5074515;28;20028;-43
2024/02/23 02:35:49;;;;;;;0.80;0.40;;;12.10;99.90;;;;;;5074043;28;20021;-43
2024/02/23 02:38:15;;;;;;;0.73;0.30;;;12.20;99.90;;;;;;5073961;28;20085;-45
2024/02/23 02:40:41;;;;;;;0.93;0.30;;;12.20;99.90;;;;;;5073732;28;20040;-45
2024/02/23 02:43:07;;;;;;;0.95;0.30;;;12.10;99.90;;;;;;5074008;28;20446;-44
2024/02/23 02:45:33;;;;;;;1.02;0.30;;;12.10;99.90;;;;;;5073863;28;20024;-45
2024/02/23 02:48:01;;;;;;;1.45;0.40;;;12.20;99.90;;;;;;5073764;28;20064;-45
2024/02/23 02:50:27;;;;;;;0.73;0.20;;;12.10;99.90;;;;;;5073618;28;20085;-45
2024/02/23 02:52:52;;;;;;;0.52;0.45;;;12.10;99.90;;;;;;5073868;28;20017;-44
2024/02/23 02:55:18;;;;;;;0.30;0.10;;;12.10;99.90;;;;;;5073577;28;20028;-42
2024/02/23 02:57:44;;;;;;;1.92;0.40;;;12.10;99.90;;;;;;5073787;28;20016;-44
2024/02/23 03:00:11;;;;;;;1.60;0.30;;;12.10;99.90;;;;;;5073850;28;20100;-43
2024/02/23 03:02:37;;;;;;;1.02;0.38;;;12.10;99.90;;;;;;5074171;28;20044;-44
2024/02/23 03:05:02;;;;;;;0.68;0.47;;;12.10;99.90;;;;;;5073526;28;20028;-44
2024/02/23 03:07:28;;;;;;;1.20;0.38;;;12.10;99.90;;;;;;5074018;28;20214;-45
2024/02/23 03:09:54;;;;;;;0.38;0.13;;;12.10;99.90;;;;;;5073099;28;20040;-42
2024/02/23 03:12:20;;;;;;;1.30;0.20;;;12.10;99.90;;;;;;5073510;28;20017;-43
2024/02/23 03:14:46;;;;;;;0.55;0.30;;;12.10;99.90;;;;;;5073314;28;20021;-45
2024/02/23 03:17:12;;;;;;;1.20;0.38;;;12.10;99.90;;;;;;5073141;28;20033;-44
2024/02/23 03:19:38;;;;;;;1.13;0.40;;;12.10;99.90;;;;;;5073236;28;20029;-44
2024/02/23 03:22:04;;;;;;;1.08;0.40;;;12.10;99.90;;;;;;5073317;28;20028;-45
2024/02/23 03:24:30;;;;;;;1.55;0.43;;;12.10;99.90;;;;;;5073836;28;20035;-42
2024/02/23 03:26:56;;;;;;;0.73;0.28;;;12.10;99.90;;;;;;5073109;28;20036;-44
2024/02/23 03:29:29;;;;;;;1.00;0.40;;;12.00;99.90;;;;;;5072803;28;20021;-43
2024/02/23 03:31:58;;;;;;;0.80;0.30;;;12.00;99.90;;;;;;5073720;28;20028;-44
2024/02/23 03:34:23;;;;;;;0.40;0.30;;;12.10;99.90;;;;;;5073269;28;20017;-45
2024/02/23 03:36:49;;;;;;;1.40;0.40;;;12.10;99.90;;;;;;5073365;28;20048;-43
2024/02/23 03:39:15;;;;;;;0.60;0.20;;;12.10;99.90;;;;;;5073082;28;20024;-45
2024/02/23 03:41:41;;;;;;;0.95;0.30;;;12.00;99.90;;;;;;5073368;28;20028;-43
2024/02/23 03:44:06;;;;;;;0.68;0.32;;;12.00;99.90;;;;;;5072870;28;20025;-45
2024/02/23 03:46:32;;;;;;;2.33;0.45;;;12.00;99.90;;;;;;5072826;28;20043;-42
2024/02/23 03:48:57;;;;;;;1.35;0.38;;;12.00;99.90;;;;;;5072308;28;20085;-44
2024/02/23 03:51:23;;;;;;;0.55;0.25;;;12.00;99.90;;;;;;5072992;28;20028;-45
2024/02/23 03:53:49;;;;;;;0.75;0.25;;;12.00;99.90;;;;;;5072686;28;20033;-40
2024/02/23 03:56:16;;;;;;;1.20;0.43;;;12.00;99.90;;;;;;5072528;28;20028;-45
2024/02/23 03:58:41;;;;;;;0.55;0.20;;;12.00;99.90;;;;;;5072382;28;20087;-44
2024/02/23 04:01:07;;;;;;;1.70;0.40;;;12.00;99.90;;;;;;5072486;28;20040;-44
2024/02/23 04:03:33;;;;;;;0.65;0.20;;;12.00;99.90;;;;;;5072531;28;20032;-43
2024/02/23 04:05:59;;;;;;;0.73;0.32;;;12.00;99.90;;;;;;5072413;28;20093;-45
2024/02/23 04:08:24;;;;;;;1.58;0.43;;;12.00;99.90;;;;;;5072348;28;20032;-45
2024/02/23 04:10:50;;;;;;;1.42;0.40;;;12.00;99.90;;;;;;5072603;28;20025;-45
2024/02/23 04:13:17;;;;;;;0.65;0.30;;;12.00;99.90;;;;;;5072528;28;20029;-44
2024/02/23 04:15:43;;;;;;;0.30;0.20;;;12.00;99.90;;;;;;5072230;28;20017;-44
2024/02/23 04:18:09;;;;;;;0.95;0.20;;;12.00;99.90;;;;;;5072669;28;20028;-44
2024/02/23 04:20:35;;;;;;;0.60;0.30;;;12.00;99.90;;;;;;5071960;28;20103;-45
2024/02/23 04:23:00;;;;;;;1.50;0.40;;;12.00;99.90;;;;;;5072209;28;20021;-44
2024/02/23 04:25:26;;;;;;;1.77;0.45;;;11.90;99.90;;;;;;5072634;28;20020;-45
2024/02/23 04:27:51;;;;;;;0.50;0.22;;;12.00;99.90;;;;;;5071996;28;20042;-45
2024/02/23 04:30:17;;;;;;;1.08;0.30;;;12.00;99.90;;;;;;5072015;28;20067;-45
2024/02/23 04:32:44;;;;;;;0.63;0.30;;;11.90;99.90;;;;;;5072018;28;20028;-44
2024/02/23 04:35:10;;;;;;;1.00;0.40;;;12.00;99.90;;;;;;5071784;28;20028;-45
2024/02/23 04:37:35;;;;;;;2.50;0.60;;;11.90;99.90;;;;;;5071898;28;20024;-45
2024/02/23 04:40:01;;;;;;;1.33;0.40;;;11.90;99.90;;;;;;5071609;28;20043;-43
2024/02/23 04:42:27;;;;;;;0.77;0.30;;;11.90;99.90;;;;;;5071584;28;20409;-44
2024/02/23 04:44:54;;;;;;;2.00;0.50;;;11.90;99.90;;;;;;5071769;28;20055;-43
2024/02/23 04:47:21;;;;;;;0.40;0.22;;;11.90;99.90;;;;;;5071560;28;20386;-45
2024/02/23 04:49:46;;;;;;;0.65;0.20;;;11.90;99.90;;;;;;5069332;28;20029;-45
2024/02/23 04:52:12;;;;;;;0.82;0.40;;;11.90;99.90;;;;;;5071573;28;20032;-44
2024/02/23 04:54:37;;;;;;;2.08;0.30;;;11.90;99.90;;;;;;5071561;28;20029;-44
2024/02/23 04:57:03;;;;;;;1.05;0.43;;;11.90;99.90;;;;;;5071441;28;20021;-44
2024/02/23 04:59:31;;;;;;;1.02;0.35;;;11.90;99.90;;;;;;5071383;28;20032;-45
2024/02/23 05:01:57;;;;;;;1.02;0.30;;;11.90;99.90;;;;;;5071409;28;20048;-44
2024/02/23 05:04:23;;;;;;;0.85;0.30;;;11.90;99.90;;;;;;5071235;28;20028;-45
2024/02/23 05:06:48;;;;;;;1.95;0.40;;;11.90;99.90;;;;;;5071175;28;20020;-44
2024/02/23 05:09:14;;;;;;;2.50;0.40;;;11.90;99.90;;;;;;5071183;28;20033;-45
2024/02/23 05:11:40;;;;;;;1.00;0.30;;;11.90;99.90;;;;;;5071518;28;20380;-45
2024/02/23 05:14:05;;;;;;;0.77;0.32;;;11.90;99.90;;;;;;5071377;28;20021;-40
2024/02/23 05:16:31;;;;;;;0.63;0.32;;;11.90;99.90;;;;;;5071326;28;20040;-43
2024/02/23 05:18:57;;;;;;;0.47;0.30;;;11.80;99.90;;;;;;5070768;28;20046;-45
2024/02/23 05:21:22;;;;;;;0.75;0.30;;;11.90;99.90;;;;;;5071387;28;20035;-41
2024/02/23 05:23:48;;;;;;;1.45;0.45;;;11.80;99.90;;;;;;5071170;28;20474;-45
2024/02/23 05:26:14;;;;;;;0.88;0.47;;;11.80;99.90;;;;;;5070989;28;20032;-41
2024/02/23 05:28:39;;;;;;;0.98;0.30;;;11.80;99.90;;;;;;5071095;28;20258;-42
2024/02/23 05:31:05;;;;;;;0.73;0.22;;;11.80;99.90;;;;;;5070839;28;20534;-45
2024/02/23 05:33:30;;;;;;;0.75;0.30;;;11.80;99.90;;;;;;5071119;28;20024;-44
2024/02/23 05:35:56;;;;;;;1.17;0.40;;;11.80;99.90;;;;;;5070978;28;20021;-44
2024/02/23 05:38:22;;;;;;;1.05;0.40;;;11.80;99.90;;;;;;5070743;28;20021;-44
2024/02/23 05:40:48;;;;;;;1.50;0.60;;;11.80;99.90;;;;;;5070685;28;20024;-44
2024/02/23 05:43:14;;;;;;;0.65;0.10;;;11.80;99.90;;;;;;5071046;28;20029;-44
2024/02/23 05:45:39;;;;;;;1.00;0.40;;;11.80;99.90;;;;;;5071081;28;20028;-44
2024/02/23 05:48:06;;;;;;;2.28;0.30;;;11.80;99.90;;;;;;5070780;28;20104;-43
2024/02/23 05:50:32;;;;;;;1.33;0.52;;;11.80;99.90;;;;;;5070975;28;20047;-45
2024/02/23 05:52:58;;;;;;;1.40;0.52;;;11.80;99.90;;;;;;5071111;28;20475;-40
2024/02/23 05:55:23;;;;;;;3.63;0.68;;;11.80;99.90;;;;;;5071082;28;20020;-45
2024/02/23 05:57:50;;;;;;;1.55;0.60;;;11.80;99.90;;;;;;5070776;28;20028;-45
2024/02/23 06:00:18;;;;;;;2.88;0.98;;;11.80;99.90;;;;;;5070688;28;20662;-43
2024/02/23 06:02:45;;;;;;;1.77;0.80;;;11.80;99.90;;;;;;5074508;28;20029;-42
2024/02/23 06:05:12;;;;;;;1.98;0.60;;;11.80;99.90;;;;;;5074833;28;20386;-43
2024/02/23 06:07:37;;;;;;;1.48;0.70;;;11.80;99.90;;;;;;5074734;28;20032;-44
2024/02/23 06:10:04;;;;;;;1.23;0.80;;;11.80;99.90;;;;;;5074516;28;20025;-45
2024/02/23 06:12:29;;;;;;;1.02;0.50;;;11.80;99.90;;;;;;5074957;28;20100;-45
2024/02/23 06:14:58;;;;;;;1.00;0.43;;;11.80;99.90;;;;;;5074700;28;20116;-44
2024/02/23 06:17:24;;;;;;;0.93;0.50;;;11.80;99.90;;;;;;5074430;28;20028;-44
2024/02/23 06:19:52;;;;;;;1.63;0.80;;;11.80;99.90;;;;;;5074573;28;20025;-43
2024/02/23 06:22:20;;;;;;;1.02;0.55;;;11.70;99.90;;;;;;5074705;28;20032;-43
2024/02/23 06:24:47;;;;;;;2.40;0.80;;;11.70;99.90;;;;;;5074438;28;20070;-45
2024/02/23 06:27:12;;;;;;;0.98;0.50;;;11.70;99.90;;;;;;5074218;28;20036;-45
2024/02/23 06:29:38;;;;;;;1.90;0.60;;;11.80;99.90;;;;;;5074144;28;20112;-45
2024/02/23 06:32:04;;;;;;;2.25;0.80;;;11.80;99.90;;;;;;5074396;28;20028;-43
2024/02/23 06:34:29;;;;;;;2.13;1.27;;;11.80;99.90;;;;;;5074253;28;20383;-43
2024/02/23 06:36:55;;;;;;;3.22;1.65;;;11.80;99.90;;;;;;5073960;28;20028;-43
2024/02/23 06:39:21;;;;;;;2.63;1.40;;;11.80;99.90;;;;;;5073738;28;20107;-40
2024/02/23 06:41:46;;;;;;;2.83;1.38;;;11.80;99.90;;;;;;5074165;28;20029;-44
2024/02/23 06:44:12;;;;;;;1.88;1.00;;;11.80;99.90;;;;;;5073898;28;20031;-45
2024/02/23 06:46:38;;;;;;;3.30;1.20;;;11.80;99.90;;;;;;5073738;28;20029;-44
2024/02/23 06:49:04;;;;;;;1.95;1.10;;;11.80;99.90;;;;;;5073558;28;20021;-44
2024/02/23 06:51:31;;;;;;;2.30;1.00;;;11.90;99.90;;;;;;5073880;28;20013;-45
2024/02/23 06:53:57;;;;;;;2.10;1.23;;;11.90;99.90;;;;;;5073896;28;20016;-44
2024/02/23 06:56:23;;;;;;;2.17;1.20;;;11.90;99.90;;;;;;5073718;28;20437;-44
2024/02/23 06:58:48;;;;;;;3.95;1.33;;;11.90;99.90;;;;;;5073519;28;20090;-45
2024/02/23 07:01:14;;;;;;;2.60;1.10;;;12.00;99.90;;;;;;5073578;28;20024;-44
2024/02/23 07:03:42;;;;;;;2.33;1.30;;;12.00;99.90;;;;;;5073748;28;20479;-42
2024/02/23 07:06:10;;;;;;;2.45;1.10;;;12.10;99.90;;;;;;5073856;28;20035;-45
2024/02/23 07:08:35;;;;;;;3.80;1.10;;;12.10;99.90;;;;;;5073908;28;20025;-45
2024/02/23 07:11:01;;;;;;;1.92;1.05;;;12.20;99.90;;;;;;5073482;28;20501;-45
2024/02/23 07:13:27;;;;;;;1.25;0.93;;;12.30;99.90;;;;;;5072790;28;20480;-43
2024/02/23 07:15:52;;;;;;;1.55;1.00;;;12.30;99.90;;;;;;5074023;28;20482;-44
2024/02/23 07:18:18;;;;;;;1.92;0.90;;;12.40;99.90;;;;;;5073170;28;20322;-43
2024/02/23 07:20:43;;;;;;;1.73;0.90;;;12.40;99.90;;;;;;5073086;28;20028;-43
2024/02/23 07:23:09;;;;;;;1.65;0.88;;;12.50;99.90;;;;;;5073285;28;20028;-44
2024/02/23 07:25:35;;;;;;;1.42;0.90;;;12.50;99.90;;;;;;5073325;28;20478;-43
2024/02/23 07:28:01;;;;;;;2.30;1.00;;;12.60;99.90;;;;;;5073209;28;20033;-43
2024/02/23 07:30:26;;;;;;;2.65;1.13;;;12.60;99.90;;;;;;5072867;28;20162;-43
2024/02/23 07:32:52;;;;;;;1.75;1.00;;;12.70;99.90;;;;;;5073579;28;20035;-45
2024/02/23 07:35:17;;;;;;;1.23;0.80;;;12.80;99.90;;;;;;5073097;28;20440;-41
2024/02/23 07:37:43;;;;;;;1.35;0.77;;;12.80;99.90;;;;;;5072888;28;20031;-42
2024/02/23 07:40:09;;;;;;;1.75;0.85;;;12.90;99.90;;;;;;5072820;28;20028;-43
2024/02/23 07:42:35;;;;;;;1.45;0.70;;;12.90;99.90;;;;;;5072954;28;20028;-45
2024/02/23 07:45:04;;;;;;;1.45;0.85;;;13.00;99.90;;;;;;5072849;28;20200;-41
2024/02/23 07:47:32;;;;;;;1.15;0.70;;;13.10;99.90;;;;;;5072772;28;20039;-45
2024/02/23 07:49:58;;;;;;;1.80;0.70;;;13.20;99.90;;;;;;5072496;28;20021;-44
2024/02/23 07:52:25;;;;;;;1.15;0.73;;;13.20;99.90;;;;;;5073132;28;20025;-43
2024/02/23 07:54:52;;;;;;;2.50;1.08;;;13.30;99.90;;;;;;5072698;28;20107;-44
2024/02/23 07:57:21;;;;;;;1.10;0.73;;;13.40;99.90;;;;;;5072755;28;20024;-43
2024/02/23 07:59:47;;;;;;;1.80;0.70;;;13.40;99.90;;;;;;5072492;28;20025;-42
2024/02/23 08:02:14;;;;;;;2.50;1.15;;;13.50;99.90;;;;;;5073219;28;20021;-43
2024/02/23 08:04:40;;;;;;;3.55;1.75;;;13.50;99.90;;;;;;5073048;28;20032;-44
2024/02/23 08:07:06;;;;;;;2.15;1.55;;;13.60;99.90;;;;;;5071268;28;20116;-44
2024/02/23 08:09:32;;;;;;;2.30;1.30;;;13.60;99.90;;;;;;5072132;28;20028;-44
2024/02/23 08:11:58;;;;;;;2.28;1.10;;;13.70;99.90;;;;;;5072492;28;20033;-45
2024/02/23 08:14:23;;;;;;;2.22;1.02;;;13.80;99.90;;;;;;5072738;28;20021;-45
2024/02/23 08:16:50;;;;;;;3.80;1.00;;;13.80;99.90;;;;;;5071556;28;20081;-38
2024/02/23 08:19:15;;;;;;;1.92;1.20;;;13.90;99.90;;;;;;5072505;28;20474;-45
2024/02/23 08:21:41;;;;;;;1.27;1.00;;;14.00;99.90;;;;;;5072520;28;20036;-44
2024/02/23 08:24:07;;;;;;;1.35;0.90;;;14.00;99.90;;;;;;5072113;28;20028;-41
2024/02/23 08:26:33;;;;;;;1.88;1.10;;;14.10;99.90;;;;;;5072159;28;20119;-45
2024/02/23 08:28:59;;;;;;;1.15;0.90;;;14.10;99.90;;;;;;5055539;28;20039;-44
2024/02/23 08:31:25;;;;;;;2.30;1.08;;;14.20;99.90;;;;;;5072213;28;20024;-43
2024/02/23 08:33:50;;;;;;;1.45;1.00;;;14.20;99.90;;;;;;5071955;28;20024;-45
2024/02/23 08:36:16;;;;;;;1.83;1.05;;;14.30;99.90;;;;;;5071950;28;20107;-43
2024/02/23 08:38:42;;;;;;;3.17;1.00;;;14.40;99.90;;;;;;5071882;28;20400;-44
2024/02/23 08:41:08;;;;;;;2.45;1.10;;;14.40;99.90;;;;;;5071874;28;20198;-46
2024/02/23 08:43:34;;;;;;;1.33;0.75;;;14.50;99.90;;;;;;5071686;28;20047;-45
2024/02/23 08:45:59;;;;;;;2.00;1.00;;;14.50;99.80;;;;;;5071672;28;20526;-46
2024/02/23 08:48:25;;;;;;;1.95;0.95;;;14.60;99.70;;;;;;5071533;28;20094;-46
2024/02/23 08:50:51;;;;;;;2.75;1.00;;;14.70;99.70;;;;;;5071311;28;20528;-45
2024/02/23 08:53:17;;;;;;;1.70;0.90;;;14.70;99.60;;;;;;5071591;28;20021;-46
2024/02/23 08:55:42;;;;;;;1.92;0.82;;;14.80;99.50;;;;;;5073139;28;20063;-46
2024/02/23 08:58:09;;;;;;;1.67;0.68;;;14.80;98.10;;;;;;5071841;28;20032;-46
2024/02/23 09:00:36;;;;;;;3.42;0.82;;;14.80;96.50;;;;;;5071452;28;20406;-46
2024/02/23 09:03:02;;;;;;;4.35;1.15;;;14.70;95.40;;;;;;5071505;28;20093;-46
2024/02/23 09:05:28;;;;;;;4.13;1.45;;;14.70;94.80;;;;;;5071575;28;20028;-47
2024/02/23 09:07:54;;;;;;;4.03;1.67;;;14.70;94.30;;;;;;5071297;28;20386;-46
2024/02/23 09:10:20;;;;;;;5.05;0.93;;;14.70;94.00;;;;;;5071043;28;20025;-45
2024/02/23 09:12:45;;;;;;;5.22;0.98;;;14.80;94.10;;;;;;5071228;28;20020;-45
2024/02/23 09:15:11;;;;;;;3.03;0.73;;;14.90;94.20;;;;;;5071352;28;20116;-46
2024/02/23 09:17:37;;;;;;;2.40;0.68;;;14.90;94.40;;;;;;5071214;28;20025;-47
2024/02/23 09:20:03;;;;;;;2.50;0.80;;;15.00;94.60;;;;;;5071242;28;20028;-43
2024/02/23 09:22:29;;;;;;;2.80;0.70;;;15.10;94.80;;;;;;5071174;28;20512;-41
2024/02/23 09:24:56;;;;;;;3.45;0.70;;;15.20;94.90;;;;;;5071114;28;20089;-43
2024/02/23 09:27:21;;;;;;;3.50;0.82;;;15.20;95.00;;;;;;5070754;28;20502;-42
2024/02/23 09:29:47;;;;;;;2.80;0.60;;;15.30;95.10;;;;;;5070724;28;20068;-42
2024/02/23 09:32:12;;;;;;;2.05;0.77;;;15.40;95.10;;;;;;5071076;28;20024;-43
2024/02/23 09:34:38;;;;;;;4.57;1.15;;;15.50;95.50;;;;;;5070944;28;20028;-44
2024/02/23 09:37:04;;;;;;;1.70;0.65;;;15.60;95.20;;;;;;5069727;28;20546;-42
2024/02/23 09:39:30;;;;;;;1.33;0.70;;;15.60;95.20;;;;;;5070771;28;20024;-43
2024/02/23 09:41:56;;;;;;;1.42;0.70;;;15.70;95.20;;;;;;5070999;28;20137;-45
2024/02/23 09:44:22;;;;;;;3.50;0.98;;;15.80;95.20;;;;;;5070985;28;20029;-44
2024/02/23 09:46:49;;;;;;;1.98;0.63;;;15.80;95.50;;;;;;5070842;28;20036;-45
2024/02/23 09:49:18;;;;;;;1.80;0.70;;;15.90;95.10;;;;;;5070450;28;20032;-45
2024/02/23 09:51:44;;;;;;;2.63;0.82;;;16.00;95.10;;;;;;5070958;28;20031;-45
2024/02/23 09:54:10;;;;;;;1.88;0.80;;;16.00;95.00;;;;;;5070883;28;20100;-41
2024/02/23 09:56:37;;;;;;;2.88;0.70;;;16.00;94.90;;;;;;5070772;28;20035;-43
2024/02/23 09:59:03;;;;;;;2.92;0.80;;;16.10;94.90;;;;;;5070557;28;20025;-44
2024/02/23 10:01:32;;;;;;;2.03;0.70;;;16.20;94.80;;;;;;5070848;28;20031;-44
2024/02/23 10:03:59;;;;;;;2.80;0.70;;;16.20;94.70;;;;;;5070665;28;20028;-39
2024/02/23 10:06:27;;;;;;;3.05;0.45;;;16.20;94.70;;;;;;5070671;28;20241;-45
2024/02/23 10:08:56;;;;;;;3.08;0.80;;;16.30;94.60;;;;;;5070311;28;20097;-45
2024/02/23 10:11:22;;;;;;;2.20;0.80;;;16.30;93.50;;;;;;5070732;28;20402;-45
2024/02/23 10:13:52;;;;;;;3.30;1.08;;;16.30;92.50;;;;;;5070571;28;20028;-44
2024/02/23 10:16:21;;;;;;;4.63;1.30;;;16.30;92.20;;;;;;5070568;28;20023;-45
2024/02/23 10:18:51;;;;;;;1.98;0.90;;;16.30;92.20;;;;;;5070490;28;20104;-44
2024/02/23 10:21:17;;;;;;;2.08;0.80;;;16.30;92.30;;;;;;5070688;28;20028;-45
2024/02/23 10:23:45;;;;;;;3.35;1.00;;;16.30;92.30;;;;;;5070673;28;20041;-45
2024/02/23 10:26:11;;;;;;;3.03;1.13;;;16.30;92.40;;;;;;5070743;28;20747;-45
2024/02/23 10:28:39;;;;;;;3.58;1.00;;;16.30;92.50;;;;;;5070388;28;20504;-45
2024/02/23 10:31:08;;;;;;;3.42;0.98;;;16.30;92.60;;;;;;5070392;28;20028;-41
2024/02/23 10:33:35;;;;;;;4.35;0.95;;;16.40;92.60;;;;;;5070394;28;20024;-44
2024/02/23 10:36:03;;;;;;;4.75;0.90;;;16.40;92.70;;;;;;5070340;28;20021;-45
2024/02/23 10:38:32;;;;;;;2.50;0.75;;;16.40;92.70;;;;;;5069524;28;20078;-45
2024/02/23 10:40:58;;;;;;;2.50;0.85;;;16.40;92.80;;;;;;5070095;28;20102;-41
2024/02/23 10:43:32;;;;;;;2.17;0.90;;;16.50;92.80;;;;;;5070364;28;20064;-44
2024/02/23 10:46:02;;;;;;;2.50;0.85;;;16.50;92.80;;;;;;5070367;28;20032;-43
2024/02/23 10:48:28;;;;;;;2.45;0.80;;;16.50;92.00;;;;;;5071275;28;20494;-40
2024/02/23 10:50:56;;;;;;;3.83;1.08;;;16.50;91.20;;;;;;5073742;28;20036;-39
2024/02/23 10:53:24;;;;;;;4.10;0.82;;;16.40;90.80;;;;;;5073922;28;20025;-41
2024/02/23 10:55:58;;;;;;;3.45;1.00;;;16.40;90.90;;;;;;5073765;28;20375;-42
2024/02/23 10:58:23;;;;;;;6.22;1.35;;;16.40;91.00;;;;;;5073847;28;20381;-42
2024/02/23 11:00:49;;;;;;;4.15;1.13;;;16.40;91.10;;;;;;5073540;28;20542;-42
2024/02/23 11:03:15;;;;;;;6.18;1.20;;;16.50;91.30;;;;;;5073673;28;20382;-42
2024/02/23 11:05:41;;;;;;;4.72;0.90;;;16.50;91.40;;;;;;5073452;28;20025;-39
2024/02/23 11:08:07;;;;;;;1.90;0.60;;;16.50;91.50;;;;;;5073270;28;20087;-41
2024/02/23 11:10:42;;;;;;;4.22;0.93;;;16.60;91.70;;;;;;5071976;28;20075;-42
2024/02/23 11:13:08;;;;;;;2.67;0.80;;;16.60;91.70;;;;;;5073662;28;20031;-40
2024/02/23 11:15:40;;;;;;;2.80;0.80;;;16.60;91.80;;;;;;5073387;28;20428;-39
2024/02/23 11:18:32;;;;;;;4.57;1.00;;;16.70;91.90;;;;;;5073310;28;20028;-44
2024/02/23 11:21:05;;;;;;;2.80;0.77;;;16.70;91.90;;;;;;5073267;28;20133;-41
2024/02/23 11:23:51;;;;;;;3.97;1.00;;;16.80;92.00;;;;;;5073330;28;20052;-45
2024/02/23 11:26:17;;;;;;;2.67;0.70;;;16.80;92.10;;;;;;5073317;28;20051;-40
2024/02/23 11:28:53;;;;;;;4.38;0.90;;;16.80;92.10;;;;;;5072914;28;20047;-41
2024/02/23 11:31:24;;;;;;;2.33;0.80;;;16.80;92.10;;;;;;5073146;28;20402;-44
2024/02/23 11:33:54;;;;;;;2.13;0.80;;;16.90;92.10;;;;;;5073007;28;20048;-44
2024/02/23 11:36:36;;;;;;;2.20;0.82;;;16.90;92.20;;;;;;5072973;28;20017;-44
2024/02/23 11:39:02;;;;;;;2.50;0.90;;;17.00;92.20;;;;;;5072820;28;20451;-44
2024/02/23 11:41:29;;;;;;;1.85;0.65;;;17.00;92.20;;;;;;5072870;28;20032;-44
2024/02/23 11:43:56;;;;;;;3.17;1.13;;;17.00;92.20;;;;;;5072991;28;20382;-41
2024/02/23 11:46:22;;;;;;;2.35;0.75;;;17.00;92.10;;;;;;5072808;28;20032;-43
2024/02/23 11:48:53;;;;;;;3.00;0.88;;;17.00;92.20;;;;;;5072568;28;20033;-44
2024/02/23 11:51:23;;;;;;;3.08;0.80;;;17.10;92.20;;;;;;5072838;28;20506;-44
2024/02/23 11:53:49;;;;;;;1.75;0.60;;;17.10;92.20;;;;;;5073671;28;20036;-44
2024/02/23 11:56:15;;;;;;;1.60;0.60;;;17.10;92.20;;;;;;5073008;28;20416;-44
2024/02/23 11:58:42;;;;;;;2.78;0.90;;;17.10;92.20;;;;;;5072069;28;20024;-44
2024/02/23 12:01:08;;;;;;;1.98;0.82;;;17.20;92.20;;;;;;5072517;28;20098;-44
2024/02/23 12:03:33;;;;;;;2.67;0.80;;;17.20;92.20;;;;;;5072534;28;20025;-44
2024/02/23 12:06:03;;;;;;;1.25;0.57;;;17.20;92.20;;;;;;5072447;28;20490;-44
2024/02/23 12:08:37;;;;;;;2.47;0.68;;;17.20;92.20;;;;;;5072010;28;20513;-40
2024/02/23 12:11:08;;;;;;;;;;;17.20;92.20;;;;;;5072742;28;20104;-44
2024/02/23 12:13:37;;;;;;;2.30;0.75;;;17.20;92.20;;;;;;5072711;28;19905;-45
2024/02/23 12:16:04;;;;;;;1.25;0.60;;;17.20;92.20;;;;;;5072283;28;20099;-44
2024/02/23 12:18:30;;;;;;;3.15;0.90;;;17.20;92.20;;;;;;5072111;28;20020;-44
2024/02/23 12:21:04;;;;;;;2.53;0.73;;;17.20;92.50;;;;;;5071886;28;20390;-44
2024/02/23 12:23:43;;;;;;;2.83;0.60;;;17.30;92.20;;;;;;5072208;28;20082;-44
2024/02/23 12:26:10;;;;;;;2.25;0.70;;;17.30;92.20;;;;;;5072056;28;20436;-45
2024/02/23 12:28:36;;;;;;;2.25;0.73;;;17.30;92.60;;;;;;5071716;28;20578;-45
2024/02/23 12:31:06;;;;;;;2.15;0.80;;;17.30;92.20;;;;;;5072252;28;20107;-44
2024/02/23 12:33:34;;;;;;;1.55;0.60;;;17.30;92.20;;;;;;5071966;28;20065;-42
2024/02/23 12:36:00;;;;;;;1.13;0.50;;;17.40;92.50;;;;;;5072070;28;20021;-45
2024/02/23 12:38:26;;;;;;;3.80;0.60;;;17.40;92.10;;;;;;5072102;28;20044;-45
2024/02/23 12:40:51;;;;;;;1.27;0.65;;;17.40;92.10;;;;;;5071642;28;20063;-45
2024/02/23 12:43:18;;;;;;;2.13;0.80;;;17.40;92.40;;;;;;5071850;28;20024;-44
2024/02/23 12:45:49;;;;;;;2.15;0.57;;;17.40;92.00;;;;;;5071647;28;20016;-44